Aérodrome :
LOGIN :

S'inscrire | Disclaimer

   EN    FR    IT 

 










Légende :    VFR   VFR Marginal   IFR   IFR Intensif   IFR Très Intensif
Visi : 
Plafond : 
>= 8 km
>= 3000ft
5 à 8 km
1000 à 3000 ft
1500m à 5 km
500 à 1000 ft
800 à 1500m
200 à 500 ft
< 800m
< 200 ft
Symboles :   Orages  Brouillard  Fortes neiges  Fortes précipitations  Vent > 20 kt
SIGMETs :   Divers  Orages  Givrage  Turbulence  Onde Orograph.  Cendres Volcan.






- Altitude de l'aérodrome : 154 ft
- Code IATA : SZZ


EPSC - Szczecin Goleniow

DERNIER METAR :
  • 190300Z 18009KT 150V210 9999 FEW045 04/00 Q1011

METARs EXPIRÉS :
  • 190230Z 20009KT 150V230 9999 FEW049 05/01 Q1011
  • 190200Z 20008KT 9999 FEW049 05/01 Q1012
  • 190130Z 19008KT 160V220 CAVOK 05/01 Q1012
  • 190100Z 20009KT 9999 FEW039 05/01 Q1012
  • 190030Z 20008KT 160V240 9999 SCT038 SCT046 05/01 Q1013

TAF TAF EPSC
Valide du 19 à 00h jusqu'au 20 à 00h UTC


182330Z 1900/1924 21010KT 9999 BKN030
TEMPO 1908/1914 SHRA SCT012 BKN020CB
PROB40
TEMPO 1910/1913 4000 SHRA BKN012CB
BECMG 1911/1913 27006KT
TEMPO 1918/1924 SHRA SCT007 BKN020CB
PROB40
TEMPO 1918/1924 3000 SHSNRA BKN006 BKN014CB



MET'MAP, la Météo Aéronautique d'un coup d'oeil ! - Copyright ORBIFLY Décembre 2007 - Disclaimer

ORBIFLY MET'MAP TEAM :

Programmation & Développement : Alexandra Zaïnal
Sur une idée originale de : Baudouin d'Aumeries
Assistance à la programmation : Marc-Olivier Méhu
Soutien technique & logistique : Manuel Goepfert

Contact : metmap@orbifly.com




SOURCES & CREDITS :

   NOAA